sensor_id;sensor_type;location;lat;lon;timestamp;P1;durP1;ratioP1;P2;durP2;ratioP2
15812;SDS011;8007;51.404;6.304;2023-01-09T00:01:31;1.70;;;1.40;;
15812;SDS011;8007;51.404;6.304;2023-01-09T00:03:33;2.53;;;1.27;;
15812;SDS011;8007;51.404;6.304;2023-01-09T00:05:36;2.93;;;1.90;;
15812;SDS011;8007;51.404;6.304;2023-01-09T00:07:38;3.00;;;1.60;;
15812;SDS011;8007;51.404;6.304;2023-01-09T00:09:41;3.50;;;1.47;;
15812;SDS011;8007;51.404;6.304;2023-01-09T00:11:43;1.33;;;1.17;;
15812;SDS011;8007;51.404;6.304;2023-01-09T00:13:47;1.97;;;1.23;;
15812;SDS011;8007;51.404;6.304;2023-01-09T00:15:49;3.80;;;1.40;;
15812;SDS011;8007;51.404;6.304;2023-01-09T00:17:51;1.57;;;1.20;;
15812;SDS011;8007;51.404;6.304;2023-01-09T00:19:53;1.20;;;1.10;;
15812;SDS011;8007;51.404;6.304;2023-01-09T00:21:57;1.03;;;0.93;;
15812;SDS011;8007;51.404;6.304;2023-01-09T00:24:01;2.00;;;1.00;;
15812;SDS011;8007;51.404;6.304;2023-01-09T00:26:04;1.40;;;1.20;;
15812;SDS011;8007;51.404;6.304;2023-01-09T00:28:08;1.50;;;0.90;;
15812;SDS011;8007;51.404;6.304;2023-01-09T00:30:13;1.43;;;1.17;;
15812;SDS011;8007;51.404;6.304;2023-01-09T00:32:15;2.57;;;0.97;;
15812;SDS011;8007;51.404;6.304;2023-01-09T00:34:19;0.87;;;0.87;;
15812;SDS011;8007;51.404;6.304;2023-01-09T00:36:21;1.73;;;1.20;;
15812;SDS011;8007;51.404;6.304;2023-01-09T00:38:24;2.20;;;0.87;;
15812;SDS011;8007;51.404;6.304;2023-01-09T00:40:26;1.50;;;1.20;;
15812;SDS011;8007;51.404;6.304;2023-01-09T00:42:29;1.27;;;1.00;;
15812;SDS011;8007;51.404;6.304;2023-01-09T00:44:36;0.80;;;0.80;;
15812;SDS011;8007;51.404;6.304;2023-01-09T00:46:44;1.27;;;1.10;;
15812;SDS011;8007;51.404;6.304;2023-01-09T00:48:47;2.97;;;1.03;;
15812;SDS011;8007;51.404;6.304;2023-01-09T00:50:50;0.63;;;0.60;;
15812;SDS011;8007;51.404;6.304;2023-01-09T00:52:53;1.83;;;0.97;;
15812;SDS011;8007;51.404;6.304;2023-01-09T00:54:57;2.67;;;0.70;;
15812;SDS011;8007;51.404;6.304;2023-01-09T00:56:59;1.53;;;0.70;;
15812;SDS011;8007;51.404;6.304;2023-01-09T00:59:02;0.77;;;0.77;;
15812;SDS011;8007;51.404;6.304;2023-01-09T01:01:04;3.00;;;0.90;;
15812;SDS011;8007;51.404;6.304;2023-01-09T01:03:08;2.57;;;1.03;;
15812;SDS011;8007;51.404;6.304;2023-01-09T01:05:10;1.20;;;0.77;;
15812;SDS011;8007;51.404;6.304;2023-01-09T01:07:30;0.70;;;0.70;;
15812;SDS011;8007;51.404;6.304;2023-01-09T01:09:37;1.53;;;0.80;;
15812;SDS011;8007;51.404;6.304;2023-01-09T01:11:40;0.73;;;0.50;;
15812;SDS011;8007;51.404;6.304;2023-01-09T01:13:42;1.03;;;0.90;;
15812;SDS011;8007;51.404;6.304;2023-01-09T01:15:45;1.13;;;0.83;;
15812;SDS011;8007;51.404;6.304;2023-01-09T01:17:47;1.70;;;0.97;;
15812;SDS011;8007;51.404;6.304;2023-01-09T01:19:53;1.50;;;0.80;;
15812;SDS011;8007;51.404;6.304;2023-01-09T01:21:55;1.80;;;0.80;;
15812;SDS011;8007;51.404;6.304;2023-01-09T01:23:57;1.33;;;0.90;;
15812;SDS011;8007;51.404;6.304;2023-01-09T01:26:02;0.90;;;0.70;;
15812;SDS011;8007;51.404;6.304;2023-01-09T01:28:04;2.10;;;0.70;;
15812;SDS011;8007;51.404;6.304;2023-01-09T01:30:08;1.30;;;0.70;;
15812;SDS011;8007;51.404;6.304;2023-01-09T01:32:10;1.97;;;0.80;;
15812;SDS011;8007;51.404;6.304;2023-01-09T01:34:12;1.57;;;0.67;;
15812;SDS011;8007;51.404;6.304;2023-01-09T01:36:16;1.07;;;0.63;;
15812;SDS011;8007;51.404;6.304;2023-01-09T01:38:19;0.73;;;0.60;;
15812;SDS011;8007;51.404;6.304;2023-01-09T01:40:21;2.83;;;0.67;;
15812;SDS011;8007;51.404;6.304;2023-01-09T01:42:23;2.57;;;0.90;;
15812;SDS011;8007;51.404;6.304;2023-01-09T01:46:47;1.77;;;0.97;;
15812;SDS011;8007;51.404;6.304;2023-01-09T01:48:51;1.43;;;0.63;;
15812;SDS011;8007;51.404;6.304;2023-01-09T01:50:55;1.63;;;0.57;;
15812;SDS011;8007;51.404;6.304;2023-01-09T01:53:04;1.07;;;0.60;;
15812;SDS011;8007;51.404;6.304;2023-01-09T01:55:07;0.40;;;0.40;;
15812;SDS011;8007;51.404;6.304;2023-01-09T01:57:10;1.00;;;0.53;;
15812;SDS011;8007;51.404;6.304;2023-01-09T01:59:16;2.10;;;0.67;;
15812;SDS011;8007;51.404;6.304;2023-01-09T02:01:20;1.37;;;0.60;;
15812;SDS011;8007;51.404;6.304;2023-01-09T02:03:24;2.57;;;0.70;;
15812;SDS011;8007;51.404;6.304;2023-01-09T02:05:28;1.93;;;0.70;;
15812;SDS011;8007;51.404;6.304;2023-01-09T02:07:30;1.87;;;0.70;;
15812;SDS011;8007;51.404;6.304;2023-01-09T02:09:34;2.43;;;0.80;;
15812;SDS011;8007;51.404;6.304;2023-01-09T02:11:36;1.37;;;0.60;;
15812;SDS011;8007;51.404;6.304;2023-01-09T02:13:38;0.90;;;0.60;;
15812;SDS011;8007;51.404;6.304;2023-01-09T02:15:42;4.40;;;1.00;;
15812;SDS011;8007;51.404;6.304;2023-01-09T02:17:53;7.17;;;2.83;;
15812;SDS011;8007;51.404;6.304;2023-01-09T02:20:14;1.20;;;1.10;;
15812;SDS011;8007;51.404;6.304;2023-01-09T02:22:23;3.83;;;0.97;;
15812;SDS011;8007;51.404;6.304;2023-01-09T02:24:35;1.20;;;0.73;;
15812;SDS011;8007;51.404;6.304;2023-01-09T02:29:11;1.70;;;0.83;;
15812;SDS011;8007;51.404;6.304;2023-01-09T02:31:22;2.37;;;0.90;;
15812;SDS011;8007;51.404;6.304;2023-01-09T02:33:32;1.77;;;0.90;;
15812;SDS011;8007;51.404;6.304;2023-01-09T02:35:46;3.37;;;0.80;;
15812;SDS011;8007;51.404;6.304;2023-01-09T02:37:53;1.40;;;0.90;;
15812;SDS011;8007;51.404;6.304;2023-01-09T02:40:00;2.00;;;1.10;;
15812;SDS011;8007;51.404;6.304;2023-01-09T02:42:06;2.70;;;1.00;;
15812;SDS011;8007;51.404;6.304;2023-01-09T02:44:11;2.53;;;1.30;;
15812;SDS011;8007;51.404;6.304;2023-01-09T02:46:15;4.60;;;1.57;;
15812;SDS011;8007;51.404;6.304;2023-01-09T02:48:21;2.10;;;1.37;;
15812;SDS011;8007;51.404;6.304;2023-01-09T02:50:25;2.00;;;1.20;;
15812;SDS011;8007;51.404;6.304;2023-01-09T02:52:30;2.00;;;0.93;;
15812;SDS011;8007;51.404;6.304;2023-01-09T02:54:41;3.80;;;1.30;;
15812;SDS011;8007;51.404;6.304;2023-01-09T02:56:49;3.33;;;1.30;;
15812;SDS011;8007;51.404;6.304;2023-01-09T02:59:10;2.40;;;1.30;;
15812;SDS011;8007;51.404;6.304;2023-01-09T03:01:21;2.10;;;1.30;;
15812;SDS011;8007;51.404;6.304;2023-01-09T03:03:29;1.50;;;1.40;;
15812;SDS011;8007;51.404;6.304;2023-01-09T03:05:36;5.07;;;1.20;;
15812;SDS011;8007;51.404;6.304;2023-01-09T03:07:42;7.30;;;1.63;;
15812;SDS011;8007;51.404;6.304;2023-01-09T03:09:47;2.83;;;1.57;;
15812;SDS011;8007;51.404;6.304;2023-01-09T03:11:50;4.60;;;1.50;;
15812;SDS011;8007;51.404;6.304;2023-01-09T03:13:54;2.00;;;1.43;;
15812;SDS011;8007;51.404;6.304;2023-01-09T03:15:57;2.43;;;1.67;;
15812;SDS011;8007;51.404;6.304;2023-01-09T03:18:02;4.03;;;1.53;;
15812;SDS011;8007;51.404;6.304;2023-01-09T03:20:08;3.67;;;1.60;;
15812;SDS011;8007;51.404;6.304;2023-01-09T03:22:11;3.77;;;1.90;;
15812;SDS011;8007;51.404;6.304;2023-01-09T03:24:14;3.70;;;1.70;;
15812;SDS011;8007;51.404;6.304;2023-01-09T03:26:16;4.53;;;1.63;;
15812;SDS011;8007;51.404;6.304;2023-01-09T03:28:22;2.20;;;1.50;;
15812;SDS011;8007;51.404;6.304;2023-01-09T03:30:26;2.77;;;1.67;;
15812;SDS011;8007;51.404;6.304;2023-01-09T03:32:29;5.33;;;1.97;;
15812;SDS011;8007;51.404;6.304;2023-01-09T03:34:32;5.80;;;1.67;;
15812;SDS011;8007;51.404;6.304;2023-01-09T03:36:41;2.00;;;1.73;;
15812;SDS011;8007;51.404;6.304;2023-01-09T03:38:45;3.43;;;1.50;;
15812;SDS011;8007;51.404;6.304;2023-01-09T03:40:47;2.83;;;1.50;;
15812;SDS011;8007;51.404;6.304;2023-01-09T03:42:50;2.03;;;1.37;;
15812;SDS011;8007;51.404;6.304;2023-01-09T03:44:52;4.47;;;1.60;;
15812;SDS011;8007;51.404;6.304;2023-01-09T03:46:54;3.53;;;1.50;;
15812;SDS011;8007;51.404;6.304;2023-01-09T03:48:57;3.70;;;1.50;;
15812;SDS011;8007;51.404;6.304;2023-01-09T03:50:59;3.20;;;1.53;;
15812;SDS011;8007;51.404;6.304;2023-01-09T03:53:03;1.60;;;1.50;;
15812;SDS011;8007;51.404;6.304;2023-01-09T03:55:06;2.67;;;2.43;;
15812;SDS011;8007;51.404;6.304;2023-01-09T03:57:08;3.30;;;1.87;;
15812;SDS011;8007;51.404;6.304;2023-01-09T03:59:11;6.13;;;2.93;;
15812;SDS011;8007;51.404;6.304;2023-01-09T04:01:13;3.10;;;2.67;;
15812;SDS011;8007;51.404;6.304;2023-01-09T04:03:16;3.83;;;3.10;;
15812;SDS011;8007;51.404;6.304;2023-01-09T04:05:19;10.10;;;3.77;;
15812;SDS011;8007;51.404;6.304;2023-01-09T04:07:21;7.50;;;2.90;;
15812;SDS011;8007;51.404;6.304;2023-01-09T04:09:25;4.57;;;2.77;;
15812;SDS011;8007;51.404;6.304;2023-01-09T04:11:28;6.83;;;3.20;;
15812;SDS011;8007;51.404;6.304;2023-01-09T04:13:30;4.80;;;3.07;;
15812;SDS011;8007;51.404;6.304;2023-01-09T04:15:32;5.03;;;2.97;;
15812;SDS011;8007;51.404;6.304;2023-01-09T04:17:35;8.63;;;2.80;;
15812;SDS011;8007;51.404;6.304;2023-01-09T04:19:37;4.33;;;2.60;;
15812;SDS011;8007;51.404;6.304;2023-01-09T04:21:39;3.77;;;2.17;;
15812;SDS011;8007;51.404;6.304;2023-01-09T04:23:42;5.83;;;2.00;;
15812;SDS011;8007;51.404;6.304;2023-01-09T04:25:46;3.17;;;1.90;;
15812;SDS011;8007;51.404;6.304;2023-01-09T04:27:49;6.70;;;2.27;;
15812;SDS011;8007;51.404;6.304;2023-01-09T04:29:52;5.30;;;2.00;;
15812;SDS011;8007;51.404;6.304;2023-01-09T04:31:54;6.03;;;1.83;;
15812;SDS011;8007;51.404;6.304;2023-01-09T04:33:56;3.63;;;1.90;;
15812;SDS011;8007;51.404;6.304;2023-01-09T04:35:59;4.97;;;2.10;;
15812;SDS011;8007;51.404;6.304;2023-01-09T04:38:01;6.00;;;2.00;;
15812;SDS011;8007;51.404;6.304;2023-01-09T04:40:04;4.87;;;2.00;;
15812;SDS011;8007;51.404;6.304;2023-01-09T04:42:11;7.70;;;1.90;;
15812;SDS011;8007;51.404;6.304;2023-01-09T04:44:13;5.17;;;1.90;;
15812;SDS011;8007;51.404;6.304;2023-01-09T04:46:16;3.80;;;1.63;;
15812;SDS011;8007;51.404;6.304;2023-01-09T04:48:18;5.30;;;1.70;;
15812;SDS011;8007;51.404;6.304;2023-01-09T04:50:22;3.60;;;1.50;;
15812;SDS011;8007;51.404;6.304;2023-01-09T04:52:25;5.17;;;1.30;;
15812;SDS011;8007;51.404;6.304;2023-01-09T04:54:28;4.57;;;1.40;;
15812;SDS011;8007;51.404;6.304;2023-01-09T04:56:30;6.63;;;1.50;;
15812;SDS011;8007;51.404;6.304;2023-01-09T04:58:34;3.17;;;1.40;;
15812;SDS011;8007;51.404;6.304;2023-01-09T05:00:36;4.17;;;1.50;;
15812;SDS011;8007;51.404;6.304;2023-01-09T05:02:39;3.63;;;1.40;;
15812;SDS011;8007;51.404;6.304;2023-01-09T05:04:42;9.83;;;2.00;;
15812;SDS011;8007;51.404;6.304;2023-01-09T05:06:44;2.67;;;1.30;;
15812;SDS011;8007;51.404;6.304;2023-01-09T05:08:46;2.70;;;1.13;;
15812;SDS011;8007;51.404;6.304;2023-01-09T05:10:49;4.23;;;1.33;;
15812;SDS011;8007;51.404;6.304;2023-01-09T05:12:51;5.20;;;1.30;;
15812;SDS011;8007;51.404;6.304;2023-01-09T05:14:55;4.13;;;1.50;;
15812;SDS011;8007;51.404;6.304;2023-01-09T05:16:57;2.67;;;1.03;;
15812;SDS011;8007;51.404;6.304;2023-01-09T05:19:00;4.90;;;1.20;;
15812;SDS011;8007;51.404;6.304;2023-01-09T05:21:02;2.50;;;1.53;;
15812;SDS011;8007;51.404;6.304;2023-01-09T05:23:04;2.43;;;1.40;;
15812;SDS011;8007;51.404;6.304;2023-01-09T05:25:07;3.40;;;2.00;;
15812;SDS011;8007;51.404;6.304;2023-01-09T05:27:09;5.97;;;1.57;;
15812;SDS011;8007;51.404;6.304;2023-01-09T05:29:12;1.83;;;1.17;;
15812;SDS011;8007;51.404;6.304;2023-01-09T05:31:16;6.87;;;1.47;;
15812;SDS011;8007;51.404;6.304;2023-01-09T05:33:20;6.70;;;2.10;;
15812;SDS011;8007;51.404;6.304;2023-01-09T05:35:22;4.57;;;1.20;;
15812;SDS011;8007;51.404;6.304;2023-01-09T05:37:24;2.30;;;1.43;;
15812;SDS011;8007;51.404;6.304;2023-01-09T05:39:27;7.07;;;1.27;;
15812;SDS011;8007;51.404;6.304;2023-01-09T05:41:29;6.10;;;1.30;;
15812;SDS011;8007;51.404;6.304;2023-01-09T05:43:31;3.63;;;1.20;;
15812;SDS011;8007;51.404;6.304;2023-01-09T05:45:34;6.40;;;1.30;;
15812;SDS011;8007;51.404;6.304;2023-01-09T05:47:38;2.60;;;1.10;;
15812;SDS011;8007;51.404;6.304;2023-01-09T05:49:40;4.90;;;1.37;;
15812;SDS011;8007;51.404;6.304;2023-01-09T05:51:42;4.20;;;1.53;;
15812;SDS011;8007;51.404;6.304;2023-01-09T05:53:45;3.77;;;1.23;;
15812;SDS011;8007;51.404;6.304;2023-01-09T05:55:47;4.70;;;1.40;;
15812;SDS011;8007;51.404;6.304;2023-01-09T05:57:49;5.33;;;1.10;;
15812;SDS011;8007;51.404;6.304;2023-01-09T05:59:51;5.60;;;1.13;;
15812;SDS011;8007;51.404;6.304;2023-01-09T06:01:54;5.70;;;1.40;;
15812;SDS011;8007;51.404;6.304;2023-01-09T06:03:58;1.50;;;0.90;;
15812;SDS011;8007;51.404;6.304;2023-01-09T06:06:04;5.80;;;1.33;;
15812;SDS011;8007;51.404;6.304;2023-01-09T06:08:06;9.10;;;1.33;;
15812;SDS011;8007;51.404;6.304;2023-01-09T06:10:10;4.97;;;1.23;;
15812;SDS011;8007;51.404;6.304;2023-01-09T06:12:12;4.87;;;1.23;;
15812;SDS011;8007;51.404;6.304;2023-01-09T06:14:15;2.47;;;1.47;;
15812;SDS011;8007;51.404;6.304;2023-01-09T06:16:17;4.37;;;1.40;;
15812;SDS011;8007;51.404;6.304;2023-01-09T06:18:19;2.10;;;1.13;;
15812;SDS011;8007;51.404;6.304;2023-01-09T06:20:24;8.80;;;1.33;;
15812;SDS011;8007;51.404;6.304;2023-01-09T06:22:26;8.10;;;1.30;;
15812;SDS011;8007;51.404;6.304;2023-01-09T06:24:29;3.73;;;1.20;;
15812;SDS011;8007;51.404;6.304;2023-01-09T06:26:31;4.97;;;1.57;;
15812;SDS011;8007;51.404;6.304;2023-01-09T06:28:34;7.13;;;1.30;;
15812;SDS011;8007;51.404;6.304;2023-01-09T06:30:36;7.80;;;1.70;;
15812;SDS011;8007;51.404;6.304;2023-01-09T06:32:39;4.10;;;1.30;;
15812;SDS011;8007;51.404;6.304;2023-01-09T06:34:41;6.57;;;1.60;;
15812;SDS011;8007;51.404;6.304;2023-01-09T06:36:45;7.03;;;1.40;;
15812;SDS011;8007;51.404;6.304;2023-01-09T06:38:47;6.10;;;1.40;;
15812;SDS011;8007;51.404;6.304;2023-01-09T06:40:50;8.27;;;1.77;;
15812;SDS011;8007;51.404;6.304;2023-01-09T06:42:53;8.50;;;1.67;;
15812;SDS011;8007;51.404;6.304;2023-01-09T06:44:55;4.83;;;1.30;;
15812;SDS011;8007;51.404;6.304;2023-01-09T06:46:57;6.10;;;1.57;;
15812;SDS011;8007;51.404;6.304;2023-01-09T06:49:00;3.50;;;1.50;;
15812;SDS011;8007;51.404;6.304;2023-01-09T06:51:02;6.13;;;1.33;;
15812;SDS011;8007;51.404;6.304;2023-01-09T06:53:08;5.37;;;1.20;;
15812;SDS011;8007;51.404;6.304;2023-01-09T06:55:11;3.93;;;1.43;;
15812;SDS011;8007;51.404;6.304;2023-01-09T06:57:13;4.57;;;1.60;;
15812;SDS011;8007;51.404;6.304;2023-01-09T06:59:16;4.47;;;1.30;;
15812;SDS011;8007;51.404;6.304;2023-01-09T07:01:18;3.13;;;1.40;;
15812;SDS011;8007;51.404;6.304;2023-01-09T07:03:21;4.40;;;1.20;;
15812;SDS011;8007;51.404;6.304;2023-01-09T07:05:36;4.90;;;1.40;;
15812;SDS011;8007;51.404;6.304;2023-01-09T07:07:39;10.43;;;1.80;;
15812;SDS011;8007;51.404;6.304;2023-01-09T07:09:43;8.83;;;1.50;;
15812;SDS011;8007;51.404;6.304;2023-01-09T07:11:46;4.63;;;1.10;;
15812;SDS011;8007;51.404;6.304;2023-01-09T07:13:49;5.47;;;1.57;;
15812;SDS011;8007;51.404;6.304;2023-01-09T07:15:55;4.87;;;1.33;;
15812;SDS011;8007;51.404;6.304;2023-01-09T07:18:01;3.77;;;1.40;;
15812;SDS011;8007;51.404;6.304;2023-01-09T07:20:04;6.67;;;1.50;;
15812;SDS011;8007;51.404;6.304;2023-01-09T07:22:07;4.87;;;1.37;;
15812;SDS011;8007;51.404;6.304;2023-01-09T07:24:11;8.53;;;1.83;;
15812;SDS011;8007;51.404;6.304;2023-01-09T07:26:16;7.83;;;1.23;;
15812;SDS011;8007;51.404;6.304;2023-01-09T07:28:26;8.90;;;1.97;;
15812;SDS011;8007;51.404;6.304;2023-01-09T07:30:29;12.00;;;3.00;;
15812;SDS011;8007;51.404;6.304;2023-01-09T07:32:32;6.87;;;2.10;;
15812;SDS011;8007;51.404;6.304;2023-01-09T07:34:35;6.70;;;2.73;;
15812;SDS011;8007;51.404;6.304;2023-01-09T07:36:37;7.43;;;2.40;;
15812;SDS011;8007;51.404;6.304;2023-01-09T07:38:41;9.53;;;2.70;;
15812;SDS011;8007;51.404;6.304;2023-01-09T07:40:43;7.77;;;2.70;;
15812;SDS011;8007;51.404;6.304;2023-01-09T07:42:47;7.70;;;2.07;;
15812;SDS011;8007;51.404;6.304;2023-01-09T07:44:50;6.60;;;1.50;;
15812;SDS011;8007;51.404;6.304;2023-01-09T07:46:52;5.57;;;1.33;;
15812;SDS011;8007;51.404;6.304;2023-01-09T07:48:54;5.67;;;1.50;;
15812;SDS011;8007;51.404;6.304;2023-01-09T07:50:56;8.13;;;2.10;;
15812;SDS011;8007;51.404;6.304;2023-01-09T07:52:59;4.30;;;1.80;;
15812;SDS011;8007;51.404;6.304;2023-01-09T07:55:02;9.13;;;1.90;;
15812;SDS011;8007;51.404;6.304;2023-01-09T07:57:04;6.77;;;1.63;;
15812;SDS011;8007;51.404;6.304;2023-01-09T07:59:08;9.17;;;1.67;;
15812;SDS011;8007;51.404;6.304;2023-01-09T08:01:11;3.70;;;1.53;;
15812;SDS011;8007;51.404;6.304;2023-01-09T08:03:18;5.07;;;1.50;;
15812;SDS011;8007;51.404;6.304;2023-01-09T08:05:21;7.37;;;2.23;;
15812;SDS011;8007;51.404;6.304;2023-01-09T08:07:25;11.50;;;1.77;;
15812;SDS011;8007;51.404;6.304;2023-01-09T08:09:31;7.30;;;1.60;;
15812;SDS011;8007;51.404;6.304;2023-01-09T08:11:34;4.97;;;1.60;;
15812;SDS011;8007;51.404;6.304;2023-01-09T08:13:36;8.23;;;1.77;;
15812;SDS011;8007;51.404;6.304;2023-01-09T08:15:40;6.80;;;1.67;;
15812;SDS011;8007;51.404;6.304;2023-01-09T08:17:43;3.97;;;1.43;;
15812;SDS011;8007;51.404;6.304;2023-01-09T08:19:45;5.30;;;1.33;;
15812;SDS011;8007;51.404;6.304;2023-01-09T08:21:48;3.73;;;1.40;;
15812;SDS011;8007;51.404;6.304;2023-01-09T08:23:50;4.73;;;1.33;;
15812;SDS011;8007;51.404;6.304;2023-01-09T08:25:53;6.47;;;1.10;;
15812;SDS011;8007;51.404;6.304;2023-01-09T08:27:55;8.57;;;1.40;;
15812;SDS011;8007;51.404;6.304;2023-01-09T08:29:57;2.70;;;1.00;;
15812;SDS011;8007;51.404;6.304;2023-01-09T08:32:01;3.80;;;1.40;;
15812;SDS011;8007;51.404;6.304;2023-01-09T08:34:04;8.23;;;1.40;;
15812;SDS011;8007;51.404;6.304;2023-01-09T08:36:07;5.47;;;1.20;;
15812;SDS011;8007;51.404;6.304;2023-01-09T08:38:09;5.77;;;1.43;;
15812;SDS011;8007;51.404;6.304;2023-01-09T08:40:12;5.77;;;1.33;;
15812;SDS011;8007;51.404;6.304;2023-01-09T08:42:14;10.40;;;1.53;;
15812;SDS011;8007;51.404;6.304;2023-01-09T08:44:34;2.17;;;1.30;;
15812;SDS011;8007;51.404;6.304;2023-01-09T08:46:53;5.70;;;1.13;;
15812;SDS011;8007;51.404;6.304;2023-01-09T08:49:10;7.80;;;1.47;;
15812;SDS011;8007;51.404;6.304;2023-01-09T08:51:12;6.43;;;1.20;;
15812;SDS011;8007;51.404;6.304;2023-01-09T08:53:14;5.63;;;1.53;;
15812;SDS011;8007;51.404;6.304;2023-01-09T08:55:16;3.90;;;1.23;;
15812;SDS011;8007;51.404;6.304;2023-01-09T08:57:19;4.47;;;2.13;;
15812;SDS011;8007;51.404;6.304;2023-01-09T08:59:21;6.53;;;1.70;;
15812;SDS011;8007;51.404;6.304;2023-01-09T09:01:24;4.13;;;0.90;;
15812;SDS011;8007;51.404;6.304;2023-01-09T09:03:29;4.07;;;2.23;;
15812;SDS011;8007;51.404;6.304;2023-01-09T09:05:33;4.27;;;1.10;;
15812;SDS011;8007;51.404;6.304;2023-01-09T09:07:36;4.80;;;1.40;;
15812;SDS011;8007;51.404;6.304;2023-01-09T09:09:43;7.93;;;1.33;;
15812;SDS011;8007;51.404;6.304;2023-01-09T09:11:45;4.20;;;1.30;;
15812;SDS011;8007;51.404;6.304;2023-01-09T09:13:48;6.43;;;1.30;;
15812;SDS011;8007;51.404;6.304;2023-01-09T09:15:50;8.30;;;1.17;;
15812;SDS011;8007;51.404;6.304;2023-01-09T09:17:53;6.30;;;1.67;;
15812;SDS011;8007;51.404;6.304;2023-01-09T09:19:55;3.40;;;0.90;;
15812;SDS011;8007;51.404;6.304;2023-01-09T09:21:59;4.43;;;1.10;;
15812;SDS011;8007;51.404;6.304;2023-01-09T09:24:02;2.53;;;1.00;;
15812;SDS011;8007;51.404;6.304;2023-01-09T09:26:04;3.10;;;1.00;;
15812;SDS011;8007;51.404;6.304;2023-01-09T09:28:07;2.60;;;1.17;;
15812;SDS011;8007;51.404;6.304;2023-01-09T09:30:10;3.93;;;1.10;;
15812;SDS011;8007;51.404;6.304;2023-01-09T09:32:12;4.40;;;1.40;;
15812;SDS011;8007;51.404;6.304;2023-01-09T09:34:15;2.70;;;1.20;;
15812;SDS011;8007;51.404;6.304;2023-01-09T09:36:17;2.40;;;0.70;;
15812;SDS011;8007;51.404;6.304;2023-01-09T09:38:21;6.37;;;1.10;;
15812;SDS011;8007;51.404;6.304;2023-01-09T09:40:26;4.70;;;1.10;;
15812;SDS011;8007;51.404;6.304;2023-01-09T09:42:38;5.17;;;1.10;;
15812;SDS011;8007;51.404;6.304;2023-01-09T09:45:06;7.40;;;1.33;;
15812;SDS011;8007;51.404;6.304;2023-01-09T09:47:16;4.20;;;1.87;;
15812;SDS011;8007;51.404;6.304;2023-01-09T09:49:24;5.53;;;1.40;;
15812;SDS011;8007;51.404;6.304;2023-01-09T09:51:38;3.77;;;1.00;;
15812;SDS011;8007;51.404;6.304;2023-01-09T09:53:50;5.27;;;1.30;;
15812;SDS011;8007;51.404;6.304;2023-01-09T09:55:53;3.30;;;1.00;;
15812;SDS011;8007;51.404;6.304;2023-01-09T09:57:57;2.90;;;1.30;;
15812;SDS011;8007;51.404;6.304;2023-01-09T10:00:00;4.17;;;1.37;;
15812;SDS011;8007;51.404;6.304;2023-01-09T10:02:09;3.87;;;1.03;;
15812;SDS011;8007;51.404;6.304;2023-01-09T10:04:16;3.70;;;1.03;;
15812;SDS011;8007;51.404;6.304;2023-01-09T10:06:23;2.50;;;0.90;;
15812;SDS011;8007;51.404;6.304;2023-01-09T10:08:37;6.03;;;0.90;;
15812;SDS011;8007;51.404;6.304;2023-01-09T10:13:54;4.10;;;1.00;;
15812;SDS011;8007;51.404;6.304;2023-01-09T10:18:29;6.37;;;1.43;;
15812;SDS011;8007;51.404;6.304;2023-01-09T10:21:01;7.30;;;1.30;;
15812;SDS011;8007;51.404;6.304;2023-01-09T10:23:39;5.53;;;1.00;;
15812;SDS011;8007;51.404;6.304;2023-01-09T10:28:49;3.70;;;1.10;;
15812;SDS011;8007;51.404;6.304;2023-01-09T10:31:03;3.03;;;1.30;;
15812;SDS011;8007;51.404;6.304;2023-01-09T10:36:21;4.37;;;1.20;;
15812;SDS011;8007;51.404;6.304;2023-01-09T10:38:27;4.93;;;1.27;;
15812;SDS011;8007;51.404;6.304;2023-01-09T10:40:34;4.23;;;1.17;;
15812;SDS011;8007;51.404;6.304;2023-01-09T10:42:39;3.57;;;1.10;;
15812;SDS011;8007;51.404;6.304;2023-01-09T10:44:46;5.67;;;1.43;;
15812;SDS011;8007;51.404;6.304;2023-01-09T10:46:52;5.97;;;1.40;;
15812;SDS011;8007;51.404;6.304;2023-01-09T10:48:57;3.57;;;1.60;;
15812;SDS011;8007;51.404;6.304;2023-01-09T10:51:03;3.90;;;1.33;;
15812;SDS011;8007;51.404;6.304;2023-01-09T10:53:13;3.83;;;1.20;;
15812;SDS011;8007;51.404;6.304;2023-01-09T10:55:17;5.47;;;1.60;;
15812;SDS011;8007;51.404;6.304;2023-01-09T10:57:27;3.63;;;1.57;;
15812;SDS011;8007;51.404;6.304;2023-01-09T10:59:36;6.07;;;1.67;;
15812;SDS011;8007;51.404;6.304;2023-01-09T11:01:38;3.50;;;1.40;;
15812;SDS011;8007;51.404;6.304;2023-01-09T11:03:43;6.03;;;1.50;;
15812;SDS011;8007;51.404;6.304;2023-01-09T11:05:49;2.67;;;1.70;;
15812;SDS011;8007;51.404;6.304;2023-01-09T11:07:52;4.87;;;1.50;;
15812;SDS011;8007;51.404;6.304;2023-01-09T11:10:20;2.67;;;1.93;;
15812;SDS011;8007;51.404;6.304;2023-01-09T11:12:40;3.80;;;1.70;;
15812;SDS011;8007;51.404;6.304;2023-01-09T11:14:42;4.90;;;1.80;;
15812;SDS011;8007;51.404;6.304;2023-01-09T11:16:51;4.90;;;1.40;;
15812;SDS011;8007;51.404;6.304;2023-01-09T11:18:58;3.57;;;1.43;;
15812;SDS011;8007;51.404;6.304;2023-01-09T11:21:12;8.03;;;2.00;;
15812;SDS011;8007;51.404;6.304;2023-01-09T11:23:25;6.30;;;1.80;;
15812;SDS011;8007;51.404;6.304;2023-01-09T11:25:31;4.97;;;1.80;;
15812;SDS011;8007;51.404;6.304;2023-01-09T11:27:33;3.50;;;1.43;;
15812;SDS011;8007;51.404;6.304;2023-01-09T11:29:36;3.57;;;1.80;;
15812;SDS011;8007;51.404;6.304;2023-01-09T11:31:39;6.67;;;2.30;;
15812;SDS011;8007;51.404;6.304;2023-01-09T11:33:45;2.97;;;1.50;;
15812;SDS011;8007;51.404;6.304;2023-01-09T11:36:03;3.93;;;2.30;;
15812;SDS011;8007;51.404;6.304;2023-01-09T11:38:10;5.67;;;2.13;;
15812;SDS011;8007;51.404;6.304;2023-01-09T11:46:47;5.60;;;2.00;;
15812;SDS011;8007;51.404;6.304;2023-01-09T11:48:52;2.50;;;1.47;;
15812;SDS011;8007;51.404;6.304;2023-01-09T11:50:56;5.70;;;3.00;;
15812;SDS011;8007;51.404;6.304;2023-01-09T11:53:13;6.30;;;2.40;;
15812;SDS011;8007;51.404;6.304;2023-01-09T11:55:16;3.53;;;1.90;;
15812;SDS011;8007;51.404;6.304;2023-01-09T11:57:20;5.73;;;2.07;;
15812;SDS011;8007;51.404;6.304;2023-01-09T11:59:24;4.97;;;2.10;;
15812;SDS011;8007;51.404;6.304;2023-01-09T12:01:42;3.03;;;1.87;;
15812;SDS011;8007;51.404;6.304;2023-01-09T12:04:02;2.43;;;1.97;;
15812;SDS011;8007;51.404;6.304;2023-01-09T12:06:16;3.10;;;2.03;;
15812;SDS011;8007;51.404;6.304;2023-01-09T12:08:32;4.30;;;2.03;;
15812;SDS011;8007;51.404;6.304;2023-01-09T12:15:01;4.67;;;2.23;;
15812;SDS011;8007;51.404;6.304;2023-01-09T12:17:17;4.00;;;1.90;;
15812;SDS011;8007;51.404;6.304;2023-01-09T12:21:45;4.23;;;2.67;;
15812;SDS011;8007;51.404;6.304;2023-01-09T12:23:55;2.47;;;1.80;;
15812;SDS011;8007;51.404;6.304;2023-01-09T12:26:04;6.90;;;1.97;;
15812;SDS011;8007;51.404;6.304;2023-01-09T12:28:18;3.57;;;2.00;;
15812;SDS011;8007;51.404;6.304;2023-01-09T12:32:57;4.03;;;2.50;;
15812;SDS011;8007;51.404;6.304;2023-01-09T12:35:10;3.10;;;2.80;;
15812;SDS011;8007;51.404;6.304;2023-01-09T12:37:28;3.90;;;2.70;;
15812;SDS011;8007;51.404;6.304;2023-01-09T12:39:40;4.93;;;2.80;;
15812;SDS011;8007;51.404;6.304;2023-01-09T12:41:49;4.27;;;2.17;;
15812;SDS011;8007;51.404;6.304;2023-01-09T12:44:08;6.27;;;2.73;;
15812;SDS011;8007;51.404;6.304;2023-01-09T12:46:15;5.33;;;2.33;;
15812;SDS011;8007;51.404;6.304;2023-01-09T12:48:23;15.60;;;6.73;;
15812;SDS011;8007;51.404;6.304;2023-01-09T12:50:37;17.33;;;8.90;;
15812;SDS011;8007;51.404;6.304;2023-01-09T12:52:50;11.43;;;6.60;;
15812;SDS011;8007;51.404;6.304;2023-01-09T12:54:57;12.43;;;6.83;;
15812;SDS011;8007;51.404;6.304;2023-01-09T12:57:02;9.23;;;5.33;;
15812;SDS011;8007;51.404;6.304;2023-01-09T12:59:10;18.50;;;9.30;;
15812;SDS011;8007;51.404;6.304;2023-01-09T13:01:17;5.30;;;3.80;;
15812;SDS011;8007;51.404;6.304;2023-01-09T13:03:26;5.27;;;2.60;;
15812;SDS011;8007;51.404;6.304;2023-01-09T13:05:29;4.57;;;2.87;;
15812;SDS011;8007;51.404;6.304;2023-01-09T13:07:41;5.53;;;2.50;;
15812;SDS011;8007;51.404;6.304;2023-01-09T13:09:46;7.00;;;2.33;;
15812;SDS011;8007;51.404;6.304;2023-01-09T13:11:53;5.87;;;2.00;;
15812;SDS011;8007;51.404;6.304;2023-01-09T13:13:57;5.57;;;2.73;;
15812;SDS011;8007;51.404;6.304;2023-01-09T13:16:01;4.73;;;2.00;;
15812;SDS011;8007;51.404;6.304;2023-01-09T13:18:06;3.97;;;2.20;;